Time;durP1;ratioP1;P1;durP2;ratioP2;P2;SDS_P1;SDS_P2;PMS_P1;PMS_P2;Temp;Humidity;BMP_temperature;BMP_pressure;BME280_temperature;BME280_humidity;BME280_pressure;Samples;Min_cycle;Max_cycle;Signal;HPM_P1;HPM_P2
2021/11/05 00:01:29;;;;;;;0.00;0.00;;;;;;;;;;4995324;28;22320;-60
2021/11/05 00:03:55;;;;;;;0.00;0.00;;;;;;;;;;4995713;28;20039;-59
2021/11/05 00:06:20;;;;;;;0.00;0.00;;;;;;;;;;4995884;28;20377;-59
2021/11/05 00:08:45;;;;;;;0.00;0.00;;;;;;;;;;4993912;28;20046;-58
2021/11/05 00:11:13;;;;;;;0.00;0.00;;;;;;;;;;4981990;28;20045;-58
2021/11/05 00:13:43;;;;;;;0.00;0.00;;;;;;;;;;4978909;28;20038;-56
2021/11/05 00:16:11;;;;;;;0.00;0.00;;;;;;;;;;4946085;28;20046;-59
2021/11/05 00:18:40;;;;;;;0.00;0.00;;;;;;;;;;4977197;28;20993;-59
2021/11/05 00:21:07;;;;;;;0.00;0.00;;;;;;;;;;4965876;28;20042;-60
2021/11/05 00:23:33;;;;;;;0.00;0.00;;;;;;;;;;4962264;28;20035;-59
2021/11/05 00:26:00;;;;;;;0.10;0.10;;;;;;;;;;4978019;28;22087;-58
2021/11/05 00:28:26;;;;;;;0.00;0.00;;;;;;;;;;4961503;28;20061;-60
2021/11/05 00:30:51;;;;;;;0.00;0.00;;;;;;;;;;4976804;28;20081;-59
2021/11/05 00:33:19;;;;;;;0.00;0.00;;;;;;;;;;4962440;28;20026;-59
2021/11/05 00:35:44;;;;;;;0.00;0.00;;;;;;;;;;4975783;28;20053;-59
2021/11/05 00:38:12;;;;;;;0.00;0.00;;;;;;;;;;4977535;28;20030;-60
2021/11/05 00:40:37;;;;;;;0.00;0.00;;;;;;;;;;4943157;28;20041;-60
2021/11/05 00:43:05;;;;;;;0.00;0.00;;;;;;;;;;4976565;28;20037;-60
2021/11/05 00:45:35;;;;;;;0.00;0.00;;;;;;;;;;4961464;28;20025;-61
2021/11/05 00:48:05;;;;;;;0.00;0.00;;;;;;;;;;4976274;28;20033;-59
2021/11/05 00:50:31;;;;;;;0.00;0.00;;;;;;;;;;4974621;28;20030;-59
2021/11/05 00:53:01;;;;;;;0.00;0.00;;;;;;;;;;4946893;28;20385;-58
2021/11/05 00:55:31;;;;;;;0.00;0.00;;;;;;;;;;4978112;28;20042;-59
2021/11/05 00:57:56;;;;;;;0.00;0.00;;;;;;;;;;4965917;28;21753;-58
2021/11/05 01:00:24;;;;;;;0.10;0.10;;;;;;;;;;4973759;28;20039;-60
2021/11/05 01:02:50;;;;;;;0.00;0.00;;;;;;;;;;4947394;28;20149;-59
2021/11/05 01:05:16;;;;;;;0.00;0.00;;;;;;;;;;4978070;28;20176;-59
2021/11/05 01:07:46;;;;;;;0.00;0.00;;;;;;;;;;4975982;28;20506;-59
2021/11/05 01:10:14;;;;;;;0.00;0.00;;;;;;;;;;4964232;28;20088;-58
2021/11/05 01:12:42;;;;;;;0.00;0.00;;;;;;;;;;4975679;28;20046;-58
2021/11/05 01:15:13;;;;;;;0.00;0.00;;;;;;;;;;4960731;28;20033;-60
2021/11/05 01:17:42;;;;;;;0.00;0.00;;;;;;;;;;4977754;28;21398;-59
2021/11/05 01:20:10;;;;;;;0.00;0.00;;;;;;;;;;4979274;28;20026;-58
2021/11/05 01:22:37;;;;;;;0.00;0.00;;;;;;;;;;4974572;28;20129;-59
2021/11/05 01:25:06;;;;;;;0.00;0.00;;;;;;;;;;4965803;28;20081;-58
2021/11/05 01:27:34;;;;;;;0.00;0.00;;;;;;;;;;4975081;28;20034;-59
2021/11/05 01:30:02;;;;;;;0.00;0.00;;;;;;;;;;4976701;28;20433;-58
2021/11/05 01:32:33;;;;;;;0.00;0.00;;;;;;;;;;4961129;28;20166;-59
2021/11/05 01:34:58;;;;;;;0.00;0.00;;;;;;;;;;4958369;28;20053;-60
2021/11/05 01:37:24;;;;;;;0.05;0.05;;;;;;;;;;4958941;28;20326;-58
2021/11/05 01:39:52;;;;;;;0.00;0.00;;;;;;;;;;4974664;28;20902;-60
2021/11/05 01:42:17;;;;;;;0.00;0.00;;;;;;;;;;4978644;28;20030;-60
2021/11/05 01:44:43;;;;;;;0.00;0.00;;;;;;;;;;4967074;28;20035;-59
2021/11/05 01:47:10;;;;;;;0.10;0.10;;;;;;;;;;4979034;28;20040;-62
2021/11/05 01:49:43;;;;;;;0.10;0.10;;;;;;;;;;4980693;28;20056;-59
2021/11/05 01:52:09;;;;;;;0.00;0.00;;;;;;;;;;4979777;28;20088;-59
2021/11/05 01:54:35;;;;;;;0.00;0.00;;;;;;;;;;4979922;28;20482;-59
2021/11/05 01:57:00;;;;;;;0.00;0.00;;;;;;;;;;4965894;28;20084;-60
2021/11/05 01:59:27;;;;;;;0.32;0.32;;;;;;;;;;4977907;28;20037;-60
2021/11/05 02:01:56;;;;;;;0.00;0.00;;;;;;;;;;4978157;28;20039;-60
2021/11/05 02:04:29;;;;;;;0.00;0.00;;;;;;;;;;4977304;28;20030;-60
2021/11/05 02:06:59;;;;;;;0.00;0.00;;;;;;;;;;4979911;28;20033;-60
2021/11/05 02:09:30;;;;;;;0.68;0.68;;;;;;;;;;4962961;28;20026;-59
2021/11/05 02:11:57;;;;;;;0.00;0.00;;;;;;;;;;4990206;28;20053;-59
2021/11/05 02:14:24;;;;;;;0.00;0.00;;;;;;;;;;4999256;28;21013;-59
2021/11/05 02:16:53;;;;;;;0.20;0.20;;;;;;;;;;4980926;28;20037;-59
2021/11/05 02:19:23;;;;;;;0.00;0.00;;;;;;;;;;4982161;28;20038;-60
2021/11/05 02:21:52;;;;;;;0.00;0.00;;;;;;;;;;4998882;28;20054;-60
2021/11/05 02:24:19;;;;;;;0.00;0.00;;;;;;;;;;4999934;28;20021;-58
2021/11/05 02:26:47;;;;;;;0.00;0.00;;;;;;;;;;5000287;28;22012;-59
2021/11/05 02:29:18;;;;;;;0.00;0.00;;;;;;;;;;4996998;28;20025;-59
2021/11/05 02:31:48;;;;;;;0.00;0.00;;;;;;;;;;4998466;28;20165;-58
2021/11/05 02:34:16;;;;;;;0.00;0.00;;;;;;;;;;4988462;28;20060;-58
2021/11/05 02:36:45;;;;;;;0.00;0.00;;;;;;;;;;4999247;28;20025;-58
2021/11/05 02:39:13;;;;;;;0.00;0.00;;;;;;;;;;4993970;28;20026;-58
2021/11/05 02:41:40;;;;;;;0.00;0.00;;;;;;;;;;5000758;28;21993;-59
2021/11/05 02:44:13;;;;;;;0.00;0.00;;;;;;;;;;4999800;28;20068;-59
2021/11/05 02:46:42;;;;;;;0.00;0.00;;;;;;;;;;4998854;28;20152;-58
2021/11/05 02:49:08;;;;;;;0.00;0.00;;;;;;;;;;4998251;28;20079;-59
2021/11/05 02:51:34;;;;;;;0.00;0.00;;;;;;;;;;5001419;28;20068;-58
2021/11/05 02:54:05;;;;;;;0.00;0.00;;;;;;;;;;4994122;28;20033;-58
2021/11/05 02:56:36;;;;;;;0.00;0.00;;;;;;;;;;5001762;28;20025;-58
2021/11/05 02:59:02;;;;;;;0.00;0.00;;;;;;;;;;4981015;28;20041;-58
2021/11/05 03:01:30;;;;;;;0.00;0.00;;;;;;;;;;4964588;28;20036;-59
2021/11/05 03:04:01;;;;;;;0.00;0.00;;;;;;;;;;4996474;28;20033;-61
2021/11/05 03:06:32;;;;;;;0.00;0.00;;;;;;;;;;4999383;28;20668;-60
2021/11/05 03:08:57;;;;;;;0.00;0.00;;;;;;;;;;4998790;28;20045;-59
2021/11/05 03:11:25;;;;;;;0.00;0.00;;;;;;;;;;4999807;28;20069;-59
2021/11/05 03:13:51;;;;;;;0.00;0.00;;;;;;;;;;4997357;28;20676;-60
2021/11/05 03:16:19;;;;;;;0.00;0.00;;;;;;;;;;4987588;28;20041;-56
2021/11/05 03:18:49;;;;;;;0.00;0.00;;;;;;;;;;4997264;28;20041;-58
2021/11/05 03:21:17;;;;;;;0.00;0.00;;;;;;;;;;4998364;28;22124;-58
2021/11/05 03:23:45;;;;;;;0.00;0.00;;;;;;;;;;4995930;28;20056;-57
2021/11/05 03:26:13;;;;;;;0.00;0.00;;;;;;;;;;4983709;28;20143;-58
2021/11/05 03:28:41;;;;;;;0.00;0.00;;;;;;;;;;4998092;28;20034;-57
2021/11/05 03:31:09;;;;;;;0.00;0.00;;;;;;;;;;4997718;28;21048;-58
2021/11/05 03:33:35;;;;;;;0.00;0.00;;;;;;;;;;4997729;28;20045;-59
2021/11/05 03:36:05;;;;;;;0.00;0.00;;;;;;;;;;4996563;28;20041;-58
2021/11/05 03:38:30;;;;;;;0.00;0.00;;;;;;;;;;4996801;28;20427;-59
2021/11/05 03:40:58;;;;;;;0.00;0.00;;;;;;;;;;4982600;28;20105;-58
2021/11/05 03:43:23;;;;;;;0.00;0.00;;;;;;;;;;4952276;28;20037;-60
2021/11/05 03:45:49;;;;;;;0.00;0.00;;;;;;;;;;4980646;28;20030;-59
2021/11/05 03:48:21;;;;;;;0.00;0.00;;;;;;;;;;4997641;28;20042;-59
2021/11/05 03:50:49;;;;;;;0.00;0.00;;;;;;;;;;4979972;28;20088;-58
2021/11/05 03:53:19;;;;;;;0.00;0.00;;;;;;;;;;4999371;28;20037;-58
2021/11/05 03:55:47;;;;;;;0.00;0.00;;;;;;;;;;4998584;28;20033;-57
2021/11/05 03:58:18;;;;;;;0.00;0.00;;;;;;;;;;4996608;28;20931;-57
2021/11/05 04:00:43;;;;;;;0.00;0.00;;;;;;;;;;4982403;28;20496;-60
2021/11/05 04:03:08;;;;;;;0.00;0.00;;;;;;;;;;4981844;28;20050;-59
2021/11/05 04:05:36;;;;;;;0.00;0.00;;;;;;;;;;4996743;28;20032;-58
2021/11/05 04:08:02;;;;;;;0.00;0.00;;;;;;;;;;4979653;28;20045;-59
2021/11/05 04:10:33;;;;;;;0.00;0.00;;;;;;;;;;4956896;28;20057;-59
2021/11/05 04:13:01;;;;;;;0.00;0.00;;;;;;;;;;4941938;28;20589;-58
2021/11/05 04:15:31;;;;;;;0.00;0.00;;;;;;;;;;4979721;28;20038;-58
2021/11/05 04:17:58;;;;;;;0.00;0.00;;;;;;;;;;4976452;28;20034;-58
2021/11/05 04:20:26;;;;;;;0.00;0.00;;;;;;;;;;4959757;28;20030;-60
2021/11/05 04:22:54;;;;;;;0.00;0.00;;;;;;;;;;4961866;28;20659;-57
2021/11/05 04:25:22;;;;;;;0.00;0.00;;;;;;;;;;4978145;28;20821;-59
2021/11/05 04:27:52;;;;;;;0.00;0.00;;;;;;;;;;4978940;28;20038;-59
2021/11/05 04:30:21;;;;;;;0.00;0.00;;;;;;;;;;4978571;28;20042;-58
2021/11/05 04:32:52;;;;;;;0.00;0.00;;;;;;;;;;4964853;28;20034;-60
2021/11/05 04:35:22;;;;;;;0.00;0.00;;;;;;;;;;4966787;28;20041;-59
2021/11/05 04:37:49;;;;;;;0.00;0.00;;;;;;;;;;4977358;28;20030;-58
2021/11/05 04:40:17;;;;;;;0.13;0.13;;;;;;;;;;4977689;28;21086;-59
2021/11/05 04:42:45;;;;;;;0.00;0.00;;;;;;;;;;4959903;28;20038;-59
2021/11/05 04:45:10;;;;;;;0.00;0.00;;;;;;;;;;4951845;28;22320;-59
2021/11/05 04:50:18;;;;;;;0.00;0.00;;;;;;;;;;5316513;22;20420;-58
2021/11/05 04:52:49;;;;;;;0.00;0.00;;;;;;;;;;4998332;28;20025;-59
2021/11/05 04:55:18;;;;;;;0.00;0.00;;;;;;;;;;4997973;28;20038;-58
2021/11/05 04:57:44;;;;;;;0.00;0.00;;;;;;;;;;4980537;28;20026;-57
2021/11/05 05:00:12;;;;;;;0.00;0.00;;;;;;;;;;4979301;28;20040;-58
2021/11/05 05:02:40;;;;;;;0.00;0.00;;;;;;;;;;4977964;28;20040;-57
2021/11/05 05:05:06;;;;;;;0.00;0.00;;;;;;;;;;4967566;28;20064;-58
2021/11/05 05:07:32;;;;;;;0.00;0.00;;;;;;;;;;4979653;28;20036;-58
2021/11/05 05:10:02;;;;;;;0.00;0.00;;;;;;;;;;4998325;28;20033;-57
2021/11/05 05:12:33;;;;;;;0.00;0.00;;;;;;;;;;4982201;28;20125;-58
2021/11/05 05:15:01;;;;;;;0.00;0.00;;;;;;;;;;4992306;28;20041;-59
2021/11/05 05:17:32;;;;;;;0.00;0.00;;;;;;;;;;4965341;28;20030;-59
2021/11/05 05:20:00;;;;;;;0.00;0.00;;;;;;;;;;4987247;28;20517;-57
2021/11/05 05:22:28;;;;;;;1.35;0.35;;;;;;;;;;4982585;28;20064;-59
2021/11/05 05:24:56;;;;;;;0.00;0.00;;;;;;;;;;4996276;28;20030;-58
2021/11/05 05:27:24;;;;;;;0.00;0.00;;;;;;;;;;4995587;28;20037;-57
2021/11/05 05:29:50;;;;;;;0.00;0.00;;;;;;;;;;4996992;28;20598;-57
2021/11/05 05:32:18;;;;;;;0.00;0.00;;;;;;;;;;4992118;28;20087;-58
2021/11/05 05:34:49;;;;;;;0.00;0.00;;;;;;;;;;4997033;28;20073;-60
2021/11/05 05:37:14;;;;;;;0.00;0.00;;;;;;;;;;4967450;28;20042;-57
2021/11/05 05:39:40;;;;;;;0.00;0.00;;;;;;;;;;4979560;28;20033;-57
2021/11/05 05:42:08;;;;;;;0.00;0.00;;;;;;;;;;4985480;28;20034;-58
2021/11/05 05:44:34;;;;;;;0.00;0.00;;;;;;;;;;4997919;28;20234;-59
2021/11/05 05:47:02;;;;;;;0.00;0.00;;;;;;;;;;4977769;28;20132;-58
2021/11/05 05:49:30;;;;;;;0.00;0.00;;;;;;;;;;4997067;28;20049;-59
2021/11/05 05:51:58;;;;;;;0.00;0.00;;;;;;;;;;4977938;28;20088;-58
2021/11/05 05:54:23;;;;;;;0.00;0.00;;;;;;;;;;4997731;28;20413;-58
2021/11/05 05:56:49;;;;;;;0.00;0.00;;;;;;;;;;4965761;28;20100;-57
2021/11/05 05:59:15;;;;;;;0.00;0.00;;;;;;;;;;4978184;28;20029;-59
2021/11/05 06:01:40;;;;;;;0.00;0.00;;;;;;;;;;4963618;28;20037;-58
2021/11/05 06:04:13;;;;;;;0.00;0.00;;;;;;;;;;4979259;28;20029;-58
2021/11/05 06:06:38;;;;;;;0.10;0.10;;;;;;;;;;4982223;28;20044;-59
2021/11/05 06:09:03;;;;;;;0.00;0.00;;;;;;;;;;4998175;28;20026;-58
2021/11/05 06:11:33;;;;;;;0.00;0.00;;;;;;;;;;4996908;28;20048;-58
2021/11/05 06:14:02;;;;;;;0.00;0.00;;;;;;;;;;4965036;28;20033;-59
2021/11/05 06:16:27;;;;;;;0.00;0.00;;;;;;;;;;4979992;28;20062;-59
2021/11/05 06:18:55;;;;;;;0.00;0.00;;;;;;;;;;4993857;28;20055;-59
2021/11/05 06:21:25;;;;;;;0.00;0.00;;;;;;;;;;4989348;28;20039;-59
2021/11/05 06:23:54;;;;;;;0.00;0.00;;;;;;;;;;4996904;28;22089;-59
2021/11/05 06:29:52;;;;;;;0.00;0.00;;;;;;;;;;4999422;28;20513;-59
2021/11/05 06:32:23;;;;;;;0.00;0.00;;;;;;;;;;4998886;28;20079;-57
2021/11/05 06:34:48;;;;;;;0.00;0.00;;;;;;;;;;4997704;28;22047;-58
2021/11/05 06:37:16;;;;;;;0.00;0.00;;;;;;;;;;4998926;28;20025;-57
2021/11/05 06:39:42;;;;;;;0.00;0.00;;;;;;;;;;4969929;28;20029;-58
2021/11/05 06:42:14;;;;;;;0.00;0.00;;;;;;;;;;4990273;28;20037;-58
2021/11/05 06:44:40;;;;;;;0.00;0.00;;;;;;;;;;4990824;28;20055;-58
2021/11/05 06:47:05;;;;;;;0.00;0.00;;;;;;;;;;4968501;28;20022;-58
2021/11/05 06:49:33;;;;;;;0.00;0.00;;;;;;;;;;5000181;28;20222;-57
2021/11/05 06:51:58;;;;;;;1.50;0.22;;;;;;;;;;4968462;28;20042;-56
2021/11/05 06:54:24;;;;;;;0.00;0.00;;;;;;;;;;4982244;28;20219;-57
2021/11/05 06:56:50;;;;;;;0.00;0.00;;;;;;;;;;4990707;28;20163;-57
2021/11/05 06:59:15;;;;;;;0.00;0.00;;;;;;;;;;4990626;28;20049;-57
2021/11/05 07:01:43;;;;;;;0.00;0.00;;;;;;;;;;4980983;28;20092;-58
2021/11/05 07:04:09;;;;;;;0.00;0.00;;;;;;;;;;4983175;28;20153;-57
2021/11/05 07:06:34;;;;;;;0.00;0.00;;;;;;;;;;4965047;28;20082;-57
2021/11/05 07:09:04;;;;;;;0.00;0.00;;;;;;;;;;4983249;28;20033;-57
2021/11/05 07:11:32;;;;;;;0.00;0.00;;;;;;;;;;5001656;28;20044;-57
2021/11/05 07:13:58;;;;;;;0.00;0.00;;;;;;;;;;4982272;28;20551;-57
2021/11/05 07:16:31;;;;;;;0.00;0.00;;;;;;;;;;4972856;28;20045;-57
2021/11/05 07:18:57;;;;;;;0.00;0.00;;;;;;;;;;5000412;28;20038;-57
2021/11/05 07:21:23;;;;;;;0.00;0.00;;;;;;;;;;4983889;28;20036;-57
2021/11/05 07:23:49;;;;;;;0.00;0.00;;;;;;;;;;4984019;28;20038;-58
2021/11/05 07:26:19;;;;;;;0.00;0.00;;;;;;;;;;4984770;28;20128;-59
2021/11/05 07:28:48;;;;;;;0.00;0.00;;;;;;;;;;4999577;28;20030;-58
2021/11/05 07:31:21;;;;;;;0.00;0.00;;;;;;;;;;4986537;28;20041;-58
2021/11/05 07:33:50;;;;;;;0.00;0.00;;;;;;;;;;4983162;28;20037;-58
2021/11/05 07:39:53;;;;;;;0.00;0.00;;;;;;;;;;4998787;28;20134;-57
2021/11/05 07:42:19;;;;;;;0.00;0.00;;;;;;;;;;4999623;28;20584;-57
2021/11/05 07:44:45;;;;;;;0.00;0.00;;;;;;;;;;4989417;28;20124;-57
2021/11/05 07:47:10;;;;;;;0.00;0.00;;;;;;;;;;4980945;28;20033;-58
2021/11/05 07:49:36;;;;;;;0.00;0.00;;;;;;;;;;4996989;28;20459;-58
2021/11/05 07:52:04;;;;;;;0.00;0.00;;;;;;;;;;4999316;28;20049;-58
2021/11/05 07:54:29;;;;;;;0.00;0.00;;;;;;;;;;4968121;28;20037;-58
2021/11/05 07:56:57;;;;;;;0.00;0.00;;;;;;;;;;4990683;28;20038;-58
2021/11/05 07:59:23;;;;;;;0.00;0.00;;;;;;;;;;4984323;28;20164;-58
2021/11/05 08:01:53;;;;;;;0.00;0.00;;;;;;;;;;5000612;28;20181;-58
2021/11/05 08:04:18;;;;;;;0.00;0.00;;;;;;;;;;4996468;28;20037;-58
2021/11/05 08:06:44;;;;;;;0.00;0.00;;;;;;;;;;5000670;28;20018;-59
2021/11/05 08:09:10;;;;;;;0.00;0.00;;;;;;;;;;5000636;28;20069;-59
2021/11/05 08:11:35;;;;;;;0.00;0.00;;;;;;;;;;4954082;28;20053;-59
2021/11/05 08:14:01;;;;;;;0.00;0.00;;;;;;;;;;4981866;28;20044;-59
2021/11/05 08:16:29;;;;;;;0.00;0.00;;;;;;;;;;4974457;28;20033;-59
2021/11/05 08:22:30;;;;;;;0.00;0.00;;;;;;;;;;4998204;28;20088;-59
2021/11/05 08:25:00;;;;;;;0.00;0.00;;;;;;;;;;4999371;28;20631;-59
2021/11/05 08:30:40;;;;;;;3.30;0.98;;;;;;;;;;4990143;28;20469;-59
2021/11/05 08:36:41;;;;;;;0.00;0.00;;;;;;;;;;4998489;28;20064;-60
2021/11/05 08:39:44;;;;;;;0.00;0.00;;;;;;;;;;4997669;28;20129;-60
2021/11/05 08:45:45;;;;;;;0.05;0.05;;;;;;;;;;4998337;28;20027;-59
2021/11/05 08:48:14;;;;;;;0.20;0.15;;;;;;;;;;4997646;28;20041;-57
2021/11/05 08:50:43;;;;;;;0.10;0.10;;;;;;;;;;4999483;28;20060;-60
2021/11/05 08:53:10;;;;;;;0.00;0.00;;;;;;;;;;4983398;28;20030;-59
2021/11/05 08:55:44;;;;;;;0.00;0.00;;;;;;;;;;4971979;28;20021;-60
2021/11/05 08:58:34;;;;;;;0.00;0.00;;;;;;;;;;4985523;28;20133;-61
2021/11/05 09:01:02;;;;;;;0.00;0.00;;;;;;;;;;4980632;28;20535;-58
2021/11/05 09:04:08;;;;;;;0.38;0.38;;;;;;;;;;4963911;28;20041;-59
2021/11/05 09:06:33;;;;;;;0.93;0.30;;;;;;;;;;4998746;28;20543;-59
2021/11/05 09:09:06;;;;;;;0.00;0.00;;;;;;;;;;4979960;28;20065;-59
2021/11/05 09:11:34;;;;;;;0.00;0.00;;;;;;;;;;4978998;28;20622;-58
2021/11/05 09:14:02;;;;;;;0.05;0.05;;;;;;;;;;4997927;28;20021;-59
2021/11/05 09:16:28;;;;;;;0.00;0.00;;;;;;;;;;4971023;28;20132;-58
2021/11/05 09:19:02;;;;;;;0.00;0.00;;;;;;;;;;4962969;28;20400;-58
2021/11/05 09:21:31;;;;;;;1.65;0.52;;;;;;;;;;4987005;28;20122;-58
2021/11/05 09:23:57;;;;;;;2.28;0.32;;;;;;;;;;4994800;28;20366;-60
2021/11/05 09:26:24;;;;;;;0.00;0.00;;;;;;;;;;4996625;28;20240;-60
2021/11/05 09:28:50;;;;;;;0.00;0.00;;;;;;;;;;4998407;28;20064;-58
2021/11/05 09:31:15;;;;;;;0.00;0.00;;;;;;;;;;4998318;28;20297;-60
2021/11/05 09:33:41;;;;;;;9.45;1.45;;;;;;;;;;4979260;28;20040;-59
2021/11/05 09:36:12;;;;;;;0.00;0.00;;;;;;;;;;4969746;28;20627;-59
2021/11/05 09:38:39;;;;;;;0.30;0.30;;;;;;;;;;4997026;28;20049;-59
2021/11/05 09:41:05;;;;;;;0.00;0.00;;;;;;;;;;4981134;28;22038;-59
2021/11/05 09:43:37;;;;;;;0.00;0.00;;;;;;;;;;4999571;28;20460;-59
2021/11/05 09:46:05;;;;;;;0.00;0.00;;;;;;;;;;4990547;28;20037;-59
2021/11/05 09:48:37;;;;;;;1.55;0.85;;;;;;;;;;4996133;28;20051;-58
2021/11/05 09:51:10;;;;;;;0.00;0.00;;;;;;;;;;4996691;28;20053;-58
2021/11/05 09:53:37;;;;;;;0.00;0.00;;;;;;;;;;4997609;28;22228;-58
2021/11/05 09:56:07;;;;;;;0.00;0.00;;;;;;;;;;4981944;28;20855;-58
2021/11/05 09:59:03;;;;;;;0.00;0.00;;;;;;;;;;4972405;28;20400;-59
2021/11/05 10:01:31;;;;;;;0.00;0.00;;;;;;;;;;4980451;28;20029;-58
2021/11/05 10:03:59;;;;;;;0.00;0.00;;;;;;;;;;4998541;28;22071;-58
2021/11/05 10:06:27;;;;;;;0.00;0.00;;;;;;;;;;4971668;28;20033;-58
2021/11/05 10:08:56;;;;;;;0.00;0.00;;;;;;;;;;4988638;28;20026;-58
2021/11/05 10:11:29;;;;;;;0.00;0.00;;;;;;;;;;4987600;28;20037;-60
2021/11/05 10:13:55;;;;;;;0.00;0.00;;;;;;;;;;4984937;28;20167;-59
2021/11/05 10:16:23;;;;;;;0.10;0.10;;;;;;;;;;4987055;28;20265;-59
2021/11/05 10:18:55;;;;;;;0.00;0.00;;;;;;;;;;4981323;28;22418;-59
2021/11/05 10:21:47;;;;;;;0.00;0.00;;;;;;;;;;4969146;28;20043;-59
2021/11/05 10:24:23;;;;;;;0.00;0.00;;;;;;;;;;5002001;28;20029;-59
2021/11/05 10:26:54;;;;;;;0.00;0.00;;;;;;;;;;4988133;28;20045;-59
2021/11/05 10:29:27;;;;;;;0.00;0.00;;;;;;;;;;5000510;28;20073;-59
2021/11/05 10:32:06;;;;;;;0.00;0.00;;;;;;;;;;4996897;28;20045;-60
2021/11/05 10:34:52;;;;;;;0.00;0.00;;;;;;;;;;5001254;28;20123;-59
2021/11/05 10:37:32;;;;;;;0.00;0.00;;;;;;;;;;4978604;28;20041;-58
2021/11/05 10:39:59;;;;;;;1.23;0.32;;;;;;;;;;4987111;28;20033;-58
2021/11/05 10:42:41;;;;;;;0.00;0.00;;;;;;;;;;4985860;28;20595;-58
2021/11/05 10:45:16;;;;;;;0.00;0.00;;;;;;;;;;4987646;28;20034;-58
2021/11/05 10:47:57;;;;;;;0.00;0.00;;;;;;;;;;4974983;28;20045;-58
2021/11/05 10:50:50;;;;;;;0.00;0.00;;;;;;;;;;4998786;28;20088;-58
2021/11/05 10:53:20;;;;;;;0.00;0.00;;;;;;;;;;4998724;28;20037;-58
2021/11/05 10:55:51;;;;;;;0.00;0.00;;;;;;;;;;4986701;28;20703;-59
2021/11/05 11:01:30;;;;;;;0.00;0.00;;;;;;;;;;4986146;28;20034;-59
2021/11/05 11:04:02;;;;;;;0.00;0.00;;;;;;;;;;4998251;28;20022;-59
2021/11/05 11:06:38;;;;;;;0.00;0.00;;;;;;;;;;5001321;28;20650;-59
2021/11/05 11:09:07;;;;;;;0.00;0.00;;;;;;;;;;4989874;28;20053;-59
2021/11/05 11:11:36;;;;;;;0.00;0.00;;;;;;;;;;4986315;28;20022;-58
2021/11/05 11:14:06;;;;;;;0.00;0.00;;;;;;;;;;4980206;28;20744;-59
2021/11/05 11:16:36;;;;;;;0.00;0.00;;;;;;;;;;4965878;28;20120;-58
2021/11/05 11:19:02;;;;;;;0.00;0.00;;;;;;;;;;4996779;28;20045;-58
2021/11/05 11:21:33;;;;;;;0.00;0.00;;;;;;;;;;4988079;28;20318;-58
2021/11/05 11:23:59;;;;;;;0.00;0.00;;;;;;;;;;4968591;28;20611;-59
2021/11/05 11:26:27;;;;;;;0.00;0.00;;;;;;;;;;4978485;28;22204;-58
2021/11/05 11:28:56;;;;;;;0.00;0.00;;;;;;;;;;4995544;28;20557;-58
2021/11/05 11:31:22;;;;;;;0.00;0.00;;;;;;;;;;5000219;28;20052;-58
2021/11/05 11:34:01;;;;;;;0.00;0.00;;;;;;;;;;4998123;28;20050;-58
2021/11/05 11:36:27;;;;;;;0.00;0.00;;;;;;;;;;4996604;28;20052;-58
2021/11/05 11:38:53;;;;;;;0.63;0.55;;;;;;;;;;4982489;28;20017;-58
2021/11/05 11:41:20;;;;;;;0.00;0.00;;;;;;;;;;4967884;28;20149;-59
2021/11/05 11:43:50;;;;;;;3.85;0.30;;;;;;;;;;4986479;28;20964;-59
2021/11/05 11:46:28;;;;;;;0.00;0.00;;;;;;;;;;5001067;28;20641;-58
2021/11/05 11:48:57;;;;;;;0.73;0.45;;;;;;;;;;4998648;28;20033;-61
2021/11/05 11:51:30;;;;;;;0.00;0.00;;;;;;;;;;4997885;28;20034;-58
2021/11/05 11:54:03;;;;;;;0.00;0.00;;;;;;;;;;4993649;28;20029;-58
2021/11/05 11:56:42;;;;;;;0.10;0.10;;;;;;;;;;4993093;28;20133;-60
2021/11/05 11:59:11;;;;;;;0.00;0.00;;;;;;;;;;4982687;28;20048;-60
2021/11/05 12:01:40;;;;;;;0.00;0.00;;;;;;;;;;4982901;28;20053;-59
2021/11/05 12:07:43;;;;;;;0.00;0.00;;;;;;;;;;4993615;28;20093;-60
2021/11/05 12:10:27;;;;;;;0.15;0.15;;;;;;;;;;4978151;28;20358;-60
2021/11/05 12:12:55;;;;;;;0.00;0.00;;;;;;;;;;4978369;28;20073;-59
2021/11/05 12:15:21;;;;;;;0.00;0.00;;;;;;;;;;4997907;28;20080;-59
2021/11/05 12:17:46;;;;;;;0.00;0.00;;;;;;;;;;4976905;28;20756;-58
2021/11/05 12:20:24;;;;;;;0.00;0.00;;;;;;;;;;4998921;28;20032;-59
2021/11/05 12:23:08;;;;;;;0.00;0.00;;;;;;;;;;4963581;28;20037;-59
2021/11/05 12:26:07;;;;;;;0.00;0.00;;;;;;;;;;4999146;28;20034;-58
2021/11/05 12:28:50;;;;;;;0.32;0.32;;;;;;;;;;4976951;28;20029;-59
2021/11/05 12:31:26;;;;;;;0.00;0.00;;;;;;;;;;4983210;28;20038;-60
2021/11/05 12:37:34;;;;;;;0.00;0.00;;;;;;;;;;4997123;28;20093;-58
2021/11/05 12:40:19;;;;;;;0.00;0.00;;;;;;;;;;4980762;28;20044;-59
2021/11/05 12:42:44;;;;;;;0.00;0.00;;;;;;;;;;4998839;28;20021;-59
2021/11/05 12:45:12;;;;;;;0.00;0.00;;;;;;;;;;4977042;28;20053;-58
2021/11/05 12:47:47;;;;;;;0.00;0.00;;;;;;;;;;4996424;28;20037;-59
2021/11/05 12:50:16;;;;;;;0.00;0.00;;;;;;;;;;4996975;28;20049;-59
2021/11/05 12:52:49;;;;;;;0.00;0.00;;;;;;;;;;4984684;28;20048;-60
2021/11/05 12:55:43;;;;;;;0.00;0.00;;;;;;;;;;4997475;28;20060;-58
2021/11/05 12:58:26;;;;;;;0.15;0.15;;;;;;;;;;4977655;28;20044;-59
2021/11/05 13:00:54;;;;;;;0.00;0.00;;;;;;;;;;4997883;28;20800;-59
2021/11/05 13:03:24;;;;;;;0.00;0.00;;;;;;;;;;4992776;28;20024;-58
2021/11/05 13:06:00;;;;;;;0.10;0.10;;;;;;;;;;4983099;28;20934;-59
2021/11/05 13:08:50;;;;;;;0.00;0.00;;;;;;;;;;4995479;28;20151;-59
2021/11/05 13:11:16;;;;;;;0.60;0.10;;;;;;;;;;4993278;28;20080;-58
2021/11/05 13:13:51;;;;;;;0.00;0.00;;;;;;;;;;4976203;28;20758;-60
2021/11/05 13:16:21;;;;;;;0.00;0.00;;;;;;;;;;4997402;28;20033;-59
2021/11/05 13:18:49;;;;;;;0.25;0.25;;;;;;;;;;4995682;28;21344;-61
2021/11/05 13:21:19;;;;;;;0.00;0.00;;;;;;;;;;4983018;28;20375;-60
2021/11/05 13:23:47;;;;;;;0.00;0.00;;;;;;;;;;4988528;28;20022;-59
2021/11/05 13:26:15;;;;;;;0.00;0.00;;;;;;;;;;4997664;28;20331;-58
2021/11/05 13:28:44;;;;;;;0.00;0.00;;;;;;;;;;4976922;28;20040;-60
2021/11/05 13:31:19;;;;;;;0.00;0.00;;;;;;;;;;4975372;28;20029;-60
2021/11/05 13:33:56;;;;;;;0.00;0.00;;;;;;;;;;4980975;28;20040;-59
2021/11/05 13:36:25;;;;;;;0.00;0.00;;;;;;;;;;4989224;28;20038;-60
2021/11/05 13:38:51;;;;;;;0.00;0.00;;;;;;;;;;4950557;28;20065;-59
2021/11/05 13:41:22;;;;;;;0.00;0.00;;;;;;;;;;4980982;28;20038;-59
2021/11/05 13:43:58;;;;;;;0.00;0.00;;;;;;;;;;5000363;28;20177;-60
2021/11/05 13:46:30;;;;;;;0.00;0.00;;;;;;;;;;4999863;28;20056;-59
2021/11/05 13:48:57;;;;;;;0.00;0.00;;;;;;;;;;4998855;28;20037;-61
2021/11/05 13:51:33;;;;;;;4.13;0.40;;;;;;;;;;4997851;28;20037;-59
2021/11/05 13:54:04;;;;;;;4.60;0.50;;;;;;;;;;4973311;28;20119;-59
2021/11/05 13:56:29;;;;;;;8.20;0.80;;;;;;;;;;4974137;28;20125;-58
2021/11/05 13:58:56;;;;;;;7.15;0.57;;;;;;;;;;4986557;28;20555;-58
2021/11/05 14:01:41;;;;;;;3.78;0.60;;;;;;;;;;4998638;28;20069;-59
2021/11/05 14:08:01;;;;;;;3.28;0.28;;;;;;;;;;5000502;28;20788;-59
2021/11/05 14:10:29;;;;;;;8.30;0.60;;;;;;;;;;4999459;28;20044;-59
2021/11/05 14:12:55;;;;;;;5.78;0.90;;;;;;;;;;4992166;28;20045;-58
2021/11/05 14:15:26;;;;;;;7.03;0.55;;;;;;;;;;4979090;28;22174;-59
2021/11/05 14:21:26;;;;;;;5.22;0.90;;;;;;;;;;4997668;28;21962;-59
2021/11/05 14:24:09;;;;;;;3.20;0.43;;;;;;;;;;4972746;28;20034;-58
2021/11/05 14:26:36;;;;;;;2.65;0.45;;;;;;;;;;5001014;28;20428;-61
2021/11/05 14:29:25;;;;;;;7.10;0.50;;;;;;;;;;4999334;28;20881;-59
2021/11/05 14:31:53;;;;;;;3.33;0.70;;;;;;;;;;5000069;28;20068;-60
2021/11/05 14:34:40;;;;;;;8.55;0.47;;;;;;;;;;4983400;28;20218;-58
2021/11/05 14:37:13;;;;;;;4.20;0.60;;;;;;;;;;4999459;28;20447;-59
2021/11/05 14:39:58;;;;;;;6.03;0.52;;;;;;;;;;4979749;28;20045;-58
2021/11/05 14:42:24;;;;;;;1.20;0.43;;;;;;;;;;4981069;28;20045;-59
2021/11/05 14:45:15;;;;;;;11.75;0.77;;;;;;;;;;4984390;28;20159;-59
2021/11/05 14:47:48;;;;;;;5.72;1.17;;;;;;;;;;4998631;28;20026;-59
2021/11/05 14:50:15;;;;;;;2.35;0.30;;;;;;;;;;4993159;28;20428;-58
2021/11/05 14:55:53;;;;;;;2.30;0.70;;;;;;;;;;4986519;28;20115;-59
2021/11/05 14:58:21;;;;;;;1.95;0.73;;;;;;;;;;4978942;28;20030;-59
2021/11/05 15:00:55;;;;;;;2.53;0.43;;;;;;;;;;4971479;28;20034;-59
2021/11/05 15:03:24;;;;;;;4.93;0.38;;;;;;;;;;4998307;28;20046;-59
2021/11/05 15:05:58;;;;;;;4.03;0.95;;;;;;;;;;4998296;28;20613;-59
2021/11/05 15:08:26;;;;;;;2.05;0.38;;;;;;;;;;4980747;28;20041;-59
2021/11/05 15:10:51;;;;;;;4.15;0.40;;;;;;;;;;4985525;28;20083;-59
2021/11/05 15:13:22;;;;;;;3.47;0.40;;;;;;;;;;4999639;28;20042;-59
2021/11/05 15:15:53;;;;;;;5.00;0.32;;;;;;;;;;4965932;28;20153;-59
2021/11/05 15:18:21;;;;;;;5.47;0.45;;;;;;;;;;4981928;28;20029;-59
2021/11/05 15:20:56;;;;;;;0.77;0.30;;;;;;;;;;4986056;28;20029;-59
2021/11/05 15:23:27;;;;;;;7.55;0.55;;;;;;;;;;4981920;28;20026;-59
2021/11/05 15:26:02;;;;;;;2.42;0.32;;;;;;;;;;4985125;28;20049;-58
2021/11/05 15:28:31;;;;;;;5.68;0.50;;;;;;;;;;4988575;28;20137;-59
2021/11/05 15:30:59;;;;;;;1.63;0.28;;;;;;;;;;4999610;28;20029;-60
2021/11/05 15:37:09;;;;;;;1.75;0.40;;;;;;;;;;4996923;28;20045;-60
2021/11/05 15:39:53;;;;;;;6.63;0.65;;;;;;;;;;4997677;28;20084;-60
2021/11/05 15:42:18;;;;;;;6.13;0.68;;;;;;;;;;4994227;28;20115;-60
2021/11/05 15:44:46;;;;;;;0.55;0.40;;;;;;;;;;4986094;28;20574;-59
2021/11/05 15:47:12;;;;;;;5.57;0.88;;;;;;;;;;4966589;28;20251;-59